createdAt,value
2022-09-09T00:06:24.845Z,189.20
2022-09-09T00:13:43.558Z,188.63
2022-09-09T00:21:03.944Z,180.18
2022-09-09T00:28:15.753Z,179.57
2022-09-09T00:35:19.790Z,187.98
2022-09-09T00:42:25.045Z,188.55
2022-09-09T00:50:01.031Z,175.45
2022-09-09T00:57:32.175Z,189.95
2022-09-09T01:04:35.567Z,180.43
2022-09-09T01:11:39.074Z,181.02
2022-09-09T01:18:46.573Z,179.82
2022-09-09T01:26:10.120Z,189.85
2022-09-09T01:33:14.802Z,187.85
2022-09-09T01:40:17.095Z,168.77
2022-09-09T01:47:19.202Z,170.07
2022-09-09T01:54:41.020Z,168.95
2022-09-09T02:02:10.722Z,170.82
2022-09-09T02:09:15.903Z,172.90
2022-09-09T02:16:35.239Z,179.77
2022-09-09T02:23:37.111Z,176.70
2022-09-09T02:30:43.108Z,179.85
2022-09-09T02:37:47.142Z,179.63
2022-09-09T02:44:50.104Z,181.20
2022-09-09T02:52:03.573Z,184.35
2022-09-09T02:59:06.364Z,185.32
2022-09-09T03:06:10.935Z,179.43
2022-09-09T03:13:16.206Z,188.50
2022-09-09T03:20:19.656Z,195.35
2022-09-09T03:27:21.473Z,201.85
2022-09-09T03:34:23.218Z,207.75
2022-09-09T03:41:25.392Z,225.48
2022-09-09T03:48:28.990Z,217.25
2022-09-09T03:55:31.367Z,202.77
2022-09-09T04:02:33.130Z,197.77
2022-09-09T04:09:35.679Z,204.48
2022-09-09T04:16:38.420Z,207.23
2022-09-09T04:23:40.427Z,196.80
2022-09-09T04:30:42.492Z,195.80
2022-09-09T04:37:45.862Z,195.70
2022-09-09T04:44:47.642Z,196.05
2022-09-09T04:51:52.835Z,201.07
2022-09-09T04:58:55.518Z,196.25
2022-09-09T05:06:27.554Z,191.23
2022-09-09T05:13:33.133Z,201.18
2022-09-09T05:20:35.423Z,199.57
2022-09-09T05:27:37.472Z,199.07
2022-09-09T05:34:40.281Z,202.02
2022-09-09T05:41:42.323Z,222.95
2022-09-09T05:48:47.271Z,229.50
2022-09-09T05:55:49.802Z,201.93
2022-09-09T06:02:53.495Z,185.25
2022-09-09T06:09:56.685Z,201.70
2022-09-09T06:16:58.531Z,179.55
2022-09-09T06:24:04.789Z,191.20
2022-09-09T06:31:08.307Z,193.77
2022-09-09T06:38:10.263Z,195.32
2022-09-09T06:45:13.371Z,198.02
2022-09-09T06:52:25.871Z,202.75
2022-09-09T06:59:29.078Z,201.48
2022-09-09T07:06:32.610Z,197.10
2022-09-09T07:13:36.425Z,201.65
2022-09-09T07:20:39.183Z,175.43
2022-09-09T07:27:41.637Z,168.73
2022-09-09T07:34:43.696Z,163.88
2022-09-09T07:41:47.285Z,163.48
2022-09-09T07:48:53.034Z,162.90
2022-09-09T07:55:56.826Z,165.10
2022-09-09T08:02:58.744Z,159.27
2022-09-09T08:10:00.326Z,156.73
2022-09-09T08:17:05.931Z,153.93
2022-09-09T08:24:09.128Z,153.25
2022-09-09T08:31:14.302Z,144.80
2022-09-09T08:38:19.090Z,142.90
2022-09-09T08:45:38.442Z,143.38
2022-09-09T08:52:51.233Z,141.82
2022-09-09T08:59:55.757Z,142.85
2022-09-09T09:07:08.311Z,142.95
2022-09-09T09:14:16.746Z,144.07
2022-09-09T09:21:47.043Z,151.23
2022-09-09T09:28:51.195Z,154.75
2022-09-09T09:35:54.504Z,160.35
2022-09-09T09:43:01.531Z,143.95
2022-09-09T09:50:05.873Z,96.07
2022-09-09T09:57:12.767Z,78.90
2022-09-09T10:04:21.656Z,73.32
2022-09-09T10:11:25.598Z,68.15
2022-09-09T10:18:32.257Z,67.70
2022-09-09T10:25:59.413Z,157.40
2022-09-09T10:33:16.872Z,121.13
2022-09-09T10:40:21.178Z,133.60
2022-09-09T10:47:54.029Z,117.90
2022-09-09T10:55:21.416Z,115.90
2022-09-09T11:02:33.494Z,84.72
2022-09-09T11:09:39.217Z,52.20
2022-09-09T11:16:49.671Z,49.85
2022-09-09T11:24:00.903Z,23.13
2022-09-09T11:31:02.484Z,12.60
2022-09-09T11:38:28.759Z,9.02
2022-09-09T11:45:30.382Z,11.90
2022-09-09T11:52:39.892Z,16.33
2022-09-09T11:59:51.224Z,29.20
2022-09-09T12:07:04.214Z,32.80
2022-09-09T12:14:05.826Z,29.63
2022-09-09T12:21:26.822Z,16.77
2022-09-09T12:28:41.704Z,8.63
2022-09-09T12:35:44.322Z,8.65
2022-09-09T12:42:45.892Z,9.32
2022-09-09T12:49:47.714Z,5.93
2022-09-09T12:56:49.360Z,6.13
2022-09-09T13:03:51.005Z,6.45
2022-09-09T13:11:02.634Z,7.13
2022-09-09T13:18:07.206Z,7.80
2022-09-09T13:25:12.369Z,7.63
2022-09-09T13:32:17.848Z,7.43
2022-09-09T13:39:19.866Z,9.95
2022-09-09T13:46:36.570Z,7.22
2022-09-09T13:53:38.213Z,8.07
2022-09-09T14:00:40.669Z,7.03
2022-09-09T14:07:43.243Z,6.43
2022-09-09T14:14:44.924Z,6.97
2022-09-09T14:21:46.519Z,7.13
2022-09-09T14:28:56.150Z,6.53
2022-09-09T14:36:01.885Z,8.07
2022-09-09T14:43:03.937Z,6.70
2022-09-09T14:50:07.066Z,7.50
2022-09-09T14:57:08.640Z,8.80
2022-09-09T15:04:12.534Z,6.18
2022-09-09T15:11:14.785Z,6.82
2022-09-09T15:18:16.861Z,7.35
2022-09-09T15:25:18.973Z,8.77
2022-09-09T15:32:20.560Z,9.77
2022-09-09T15:39:22.955Z,13.60
2022-09-09T15:46:29.402Z,9.40
2022-09-09T15:53:33.199Z,12.38
2022-09-09T16:00:35.268Z,8.18
2022-09-09T16:07:37.023Z,6.57
2022-09-09T16:14:39.713Z,9.85
2022-09-09T16:21:49.712Z,7.28
2022-09-09T16:28:51.334Z,5.55
2022-09-09T16:35:52.949Z,9.13
2022-09-09T16:42:54.929Z,15.88
2022-09-09T16:49:56.514Z,29.33
2022-09-09T16:56:58.598Z,18.27
2022-09-09T17:04:04.293Z,20.13
2022-09-09T17:11:19.254Z,34.50
2022-09-09T17:18:21.663Z,56.42
2022-09-09T17:25:23.864Z,59.45
2022-09-09T17:32:25.697Z,70.78
2022-09-09T17:39:27.314Z,75.85
2022-09-09T17:46:30.888Z,79.45
2022-09-09T17:53:37.476Z,83.03
2022-09-09T18:00:39.084Z,82.43
2022-09-09T18:07:40.649Z,86.90
2022-09-09T18:14:42.275Z,90.65
2022-09-09T18:21:44.547Z,93.60
2022-09-09T18:28:50.908Z,91.68
2022-09-09T18:35:52.544Z,98.70
2022-09-09T18:42:54.119Z,105.03
2022-09-09T18:49:56.175Z,106.35
2022-09-09T18:56:59.455Z,106.32
2022-09-09T19:04:01.400Z,104.40
2022-09-09T19:11:04.932Z,112.13
2022-09-09T19:18:06.753Z,116.22
2022-09-09T19:25:08.344Z,110.55
2022-09-09T19:39:34.427Z,115.32
2022-09-09T19:46:36.801Z,115.90
2022-09-09T19:53:40.079Z,117.97
2022-09-09T20:00:41.939Z,121.35
2022-09-09T20:07:45.159Z,122.20
2022-09-09T20:14:47.200Z,123.30
2022-09-09T20:21:49.435Z,123.50
2022-09-09T20:28:52.116Z,124.82
2022-09-09T20:35:54.082Z,125.47
2022-09-09T20:42:55.650Z,126.82
2022-09-09T20:49:57.252Z,130.60
2022-09-09T20:57:00.316Z,131.52
2022-09-09T21:04:02.343Z,132.95
2022-09-09T21:11:04.424Z,134.55
2022-09-09T21:18:05.953Z,140.90
2022-09-09T21:25:07.918Z,142.75
2022-09-09T21:32:09.503Z,136.35
2022-09-09T21:39:11.082Z,138.88
2022-09-09T21:46:14.613Z,155.73
2022-09-09T21:53:18.090Z,150.02
2022-09-09T22:00:19.727Z,144.82
2022-09-09T22:07:21.324Z,153.70
2022-09-09T22:14:23.048Z,152.57
2022-09-09T22:21:26.044Z,153.27
2022-09-09T22:28:27.620Z,160.57
2022-09-09T22:35:29.197Z,167.95
2022-09-09T22:42:30.839Z,169.52
2022-09-09T22:49:32.439Z,157.70
2022-09-09T22:56:34.149Z,154.25
2022-09-09T23:03:35.783Z,152.40
2022-09-09T23:10:40.425Z,157.25
2022-09-09T23:17:42.181Z,153.43
2022-09-09T23:24:43.839Z,148.18
2022-09-09T23:31:45.687Z,153.82
2022-09-09T23:38:47.451Z,153.45
2022-09-09T23:45:50.316Z,155.13
2022-09-09T23:52:52.261Z,155.80
2022-09-09T23:59:53.828Z,154.02
